• Join FlightAware (Why Join?)
  • Login
  • US Flag 
Gobble Gobble! 
03:30AM EST


 

Airport Tracker/Info


-or-


 

Live Flight TrackerFlight Track Log ✈ N551US ✈ 18-Apr-2013 ✈ KJKA - KGAD

Flight Track Log - Related Links

Times and Time Zones

All times are in EDT time to prevent confusion due to time zone crossing. See the N551US flight status page for this flight to view local times or setup timezone preferences in your user account.

Time Position Orientation Groundspeed Altitude Reporting Facility
EDT Latitude Longitude Course Direction KTS MPH feet Rate Location/Type
11:30AM 30.2881 -87.6575 104° East 101 116 500  Level Jacksonville Center
11:31AM 30.2844 -87.6406 104° East 112 129 800 540 Climbing Jacksonville Center
11:32AM 30.3003 -87.6078 61° Northeast 168 193 1,400 660 Climbing Jacksonville Center
11:33AM 30.3469 -87.5931 15° North 181 208 2,200 780 Climbing Jacksonville Center
11:34AM 30.3975 -87.5739 18° North 178 205 3,000 720 Climbing Jacksonville Center
11:35AM 30.4422 -87.5544 21° North 177 204 3,700 720 Climbing Jacksonville Center
11:36AM 30.4908 -87.5350 19° North 175 201 4,500 780 Climbing Jacksonville Center
11:37AM 30.5353 -87.5181 18° North 169 194 5,300 720 Climbing Jacksonville Center
11:38AM 30.5819 -87.5008 18° North 169 194 6,000 660 Climbing Jacksonville Center
11:39AM 30.6242 -87.4836 19° North 167 192 6,700 480 Climbing Jacksonville Center
11:40AM 30.6731 -87.4644 19° North 176 203 7,000 120 Climbing Jacksonville Center
11:41AM 30.7194 -87.4447 20° North 194 223 7,000  Level Jacksonville Center
11:42AM 30.7747 -87.4233 18° North 198 228 7,000 240 Level Jacksonville Center
11:43AM 30.8275 -87.4042 17° North 189 217 7,500 540 Climbing Jacksonville Center
11:44AM 30.8722 -87.3819 23° Northeast 172 198 8,100 600 Climbing Jacksonville Center
11:45AM 30.9167 -87.3647 18° North 165 190 8,800 540 Climbing Jacksonville Center
11:45AM 30.9314 -87.3581 21° North 163 188 8,900 120 Climbing Jacksonville Center
11:46AM 30.9778 -87.3408 18° North 174 200 9,000  Climbing Jacksonville Center
11:47AM 31.0244 -87.3214 20° North 174 200 9,000  Level Jacksonville Center
11:48AM 31.0753 -87.2994 20° North 179 206 9,000  Level Jacksonville Center
11:49AM 31.1283 -87.2803 17° North 184 212 9,000  Level Jacksonville Center
11:50AM 31.1811 -87.2608 17° North 189 217 9,000  Level Jacksonville Center
11:51AM 31.2297 -87.2386 21° North 189 217 9,000  Level Jacksonville Center
11:52AM 31.2806 -87.2192 18° North 189 217 9,000  Level Jacksonville Center
11:53AM 31.3314 -87.1972 20° North 189 217 9,000  Level Jacksonville Center
11:55AM 31.4233 -87.1608 19° North 204 235 9,000  Level Atlanta Center
11:56AM 31.4761 -87.1433 16° North 204 235 9,000  Level Atlanta Center
11:57AM 31.5308 -87.1208 19° North 199 229 9,000  Level Atlanta Center
11:58AM 31.5836 -87.1006 18° North 199 229 9,000  Level Atlanta Center
11:59AM 31.6342 -87.0781 21° North 194 223 9,000  Level Atlanta Center
12:00PM 31.6892 -87.0481 25° Northeast 189 217 9,000  Level Atlanta Center
12:01PM 31.7397 -87.0278 19° North 189 217 9,000  Level Atlanta Center
12:02PM 31.7944 -87.0100 15° North 194 223 9,000  Level Atlanta Center
12:03PM 31.8431 -86.9872 22° Northeast 194 223 9,000  Level Atlanta Center
12:04PM 31.8978 -86.9669 17° North 196 226 9,000  Level Atlanta Center
12:05PM 31.9483 -86.9417 23° Northeast 196 226 9,000  Level Atlanta Center
12:06PM 32.0008 -86.9239 16° North 196 226 9,000  Level Atlanta Center
12:07PM 32.0536 -86.9011 20° North 196 226 9,000  Level Atlanta Center
12:08PM 32.1064 -86.8781 20° North 191 220 9,000  Level Atlanta Center
12:09PM 32.1592 -86.8578 18° North 191 220 9,000  Level Atlanta Center
12:10PM 32.2117 -86.8350 20° North 191 220 9,000  Level Atlanta Center
12:11PM 32.2561 -86.8167 19° North 191 220 9,000  Level Atlanta Center
12:12PM 32.3106 -86.7961 18° North 191 220 9,000  Level Atlanta Center
12:13PM 32.3633 -86.7733 20° North 191 220 9,000  Level Atlanta Center
12:15PM 32.4355 -86.7467 17° North  Level FlightAware Approximate
12:22PM 32.7654 -86.6132 21° North  Level FlightAware Approximate
12:22PM 32.8478 -86.5733 21° North 201 231 9,000  Level Atlanta Center
12:23PM 32.8120 -86.5922 21° North  Level FlightAware Approximate
12:23PM 32.9067 -86.5478 20° North 202 232 9,000  Level Atlanta Center
12:24PM 32.8586 -86.5713 21° North  Level FlightAware Approximate
12:24PM 32.9594 -86.5244 20° North 201 231 9,000  Level Atlanta Center
12:25PM 32.9052 -86.5503 21° North  Level FlightAware Approximate
12:25PM 33.0225 -86.4989 19° North 202 232 9,000  Level Atlanta Center
12:26PM 32.9518 -86.5293 21° North  Level FlightAware Approximate
12:26PM 33.0731 -86.4756 21° North 202 232 9,000  Level Atlanta Center
12:27PM 32.9983 -86.5083 21° North  Level FlightAware Approximate
12:27PM 33.1278 -86.4547 18° North 204 235 9,000  Level Atlanta Center
12:29PM 33.1867 -86.4292 20° North 204 235 9,100  Climbing Atlanta Center
12:30PM 33.2433 -86.4058 19° North 204 235 9,000 -300 Descending Atlanta Center
12:31PM 33.3003 -86.3800 21° North 212 244 8,500 -540 Descending Atlanta Center
12:31PM 33.3508 -86.3592 19° North 219 252 8,000 -600 Descending Atlanta Center
12:33PM 33.4139 -86.3333 19° North 220 253 7,300 -660 Descending Atlanta Center
12:34PM 33.4728 -86.3100 18° North 219 252 6,700 -600 Descending Atlanta Center
12:35PM 33.5256 -86.2839 22° Northeast 208 239 6,200 -600 Descending Atlanta Center
12:36PM 33.5781 -86.2606 20° North 199 229 5,600 -540 Descending Atlanta Center
12:37PM 33.6264 -86.2417 18° North 180 207 5,200 -300 Descending Atlanta Center
12:38PM 33.6683 -86.2228 21° North 171 197 5,100 -360 Descending Atlanta Center
12:39PM 33.7189 -86.2042 17° North 193 222 4,600 -660 Descending Atlanta Center
12:40PM 33.7714 -86.1781 22° Northeast 191 220 3,800 -840 Descending Atlanta Center